Time,TemperatureF,DewpointF,PressureIn,WindDirection,WindDirectionDegrees,WindSpeedMPH,WindSpeedGustMPH,Humidity,HourlyPrecipIn,Conditions,Clouds,dailyrainin,SoftwareType,DateUTC
2017-07-23 00:09:00,64.6,63.3,29.85,SSW,207,0.0,0.0,96,0.00,,---,0.00,VWS V15.00,2017-07-23 04:09:00,
2017-07-23 00:14:00,64.5,63.2,29.86,SSW,207,0.0,0.0,96,0.00,,---,0.00,VWS V15.00,2017-07-23 04:14:00,
2017-07-23 00:19:00,64.6,63.3,29.86,SSW,207,0.0,0.0,96,0.00,,---,0.00,VWS V15.00,2017-07-23 04:19:00,
2017-07-23 00:24:00,64.5,63.2,29.86,SSW,207,0.0,0.0,96,0.00,,---,0.00,VWS V15.00,2017-07-23 04:24:00,
2017-07-23 00:34:00,64.5,63.2,29.85,SSW,207,0.0,0.0,96,0.00,,---,0.00,VWS V15.00,2017-07-23 04:34:00,
2017-07-23 00:39:00,64.5,63.2,29.85,SSW,207,0.0,0.0,96,0.00,,---,0.00,VWS V15.00,2017-07-23 04:39:00,
2017-07-23 00:44:00,64.5,63.2,29.85,SSW,207,0.0,0.0,96,0.00,,---,0.00,VWS V15.00,2017-07-23 04:44:00,
2017-07-23 00:49:00,64.5,63.2,29.85,SSW,207,0.0,0.0,96,0.00,,---,0.00,VWS V15.00,2017-07-23 04:49:00,
2017-07-23 00:54:00,64.4,63.1,29.85,SSW,207,0.0,0.0,96,0.00,,---,0.00,VWS V15.00,2017-07-23 04:54:00,
2017-07-23 01:04:00,64.4,63.1,29.84,SSW,207,0.0,0.0,96,0.00,,---,0.00,VWS V15.00,2017-07-23 05:04:00,
2017-07-23 01:09:00,64.4,63.1,29.85,SSW,207,0.0,0.0,96,0.00,,---,0.00,VWS V15.00,2017-07-23 05:09:00,
2017-07-23 01:14:00,64.3,63.0,29.85,SSW,207,0.0,0.0,96,0.00,,---,0.00,VWS V15.00,2017-07-23 05:14:00,
2017-07-23 01:19:00,64.4,63.1,29.85,SSW,207,0.0,0.0,96,0.00,,---,0.00,VWS V15.00,2017-07-23 05:19:00,
2017-07-23 01:24:00,64.4,62.8,29.85,SSW,207,0.0,0.0,94,0.00,,---,0.00,VWS V15.00,2017-07-23 05:24:00,
2017-07-23 01:29:00,64.5,62.9,29.85,SSW,207,0.0,0.0,94,0.00,,---,0.00,VWS V15.00,2017-07-23 05:29:00,
2017-07-23 01:39:00,64.4,63.1,29.85,SSW,207,0.0,0.0,96,0.00,,---,0.00,VWS V15.00,2017-07-23 05:39:00,
2017-07-23 01:49:00,64.2,62.9,29.84,SSW,207,0.0,0.0,96,0.00,,---,0.00,VWS V15.00,2017-07-23 05:49:00,
2017-07-23 01:54:00,64.1,62.8,29.84,SSW,207,0.0,0.0,96,0.00,,---,0.00,VWS V15.00,2017-07-23 05:54:00,
2017-07-23 02:04:00,64.0,62.7,29.84,SSW,207,0.0,0.0,96,0.00,,---,0.00,VWS V15.00,2017-07-23 06:04:00,
2017-07-23 02:14:00,64.1,62.5,29.83,SSW,207,0.0,0.0,94,0.00,,---,0.00,VWS V15.00,2017-07-23 06:14:00,
2017-07-23 02:19:00,64.1,62.5,29.83,SSW,207,0.0,0.0,94,0.00,,---,0.00,VWS V15.00,2017-07-23 06:19:00,
2017-07-23 02:24:00,64.0,62.4,29.84,SSW,207,0.0,0.0,94,0.00,,---,0.00,VWS V15.00,2017-07-23 06:24:00,
2017-07-23 02:34:00,63.9,62.3,29.84,SSW,207,0.0,0.0,94,0.00,,---,0.00,VWS V15.00,2017-07-23 06:34:00,
2017-07-23 02:44:00,63.5,62.2,29.83,SSW,207,0.0,0.0,96,0.00,,---,0.00,VWS V15.00,2017-07-23 06:44:00,
2017-07-23 02:49:00,63.3,62.0,29.83,SSW,207,0.0,0.0,96,0.00,,---,0.00,VWS V15.00,2017-07-23 06:49:00,
2017-07-23 02:54:00,63.2,61.9,29.83,ENE,68,0.0,1.5,96,0.00,,---,0.00,VWS V15.00,2017-07-23 06:54:00,
2017-07-23 02:59:00,63.2,61.6,29.83,ENE,68,0.0,0.0,94,0.00,,---,0.00,VWS V15.00,2017-07-23 06:59:00,
2017-07-23 03:04:00,63.1,61.8,29.83,ENE,68,0.0,0.0,96,0.00,,---,0.00,VWS V15.00,2017-07-23 07:04:00,
2017-07-23 03:09:00,63.0,61.7,29.83,ENE,68,0.0,0.0,96,0.00,,---,0.00,VWS V15.00,2017-07-23 07:09:00,
2017-07-23 03:14:00,62.9,61.3,29.83,ENE,68,0.0,1.5,94,0.00,,---,0.00,VWS V15.00,2017-07-23 07:14:00,
2017-07-23 03:24:00,62.9,61.3,29.83,ENE,68,0.0,0.0,94,0.00,,---,0.00,VWS V15.00,2017-07-23 07:24:00,
2017-07-23 03:29:00,62.9,61.3,29.83,ENE,68,0.0,0.0,94,0.00,,---,0.00,VWS V15.00,2017-07-23 07:29:00,
2017-07-23 03:34:00,62.9,61.3,29.83,ENE,68,0.0,0.0,94,0.00,,---,0.00,VWS V15.00,2017-07-23 07:34:00,
2017-07-23 03:39:00,62.9,61.3,29.83,ENE,68,0.0,1.5,94,0.00,,---,0.00,VWS V15.00,2017-07-23 07:39:00,
2017-07-23 03:49:00,62.8,61.5,29.83,ENE,68,0.0,0.0,96,0.00,,---,0.00,VWS V15.00,2017-07-23 07:49:00,
2017-07-23 03:59:00,62.8,61.2,29.82,ENE,68,0.0,0.0,94,0.00,,---,0.00,VWS V15.00,2017-07-23 07:59:00,
2017-07-23 04:04:00,62.8,61.2,29.83,ENE,68,0.0,0.0,94,0.00,,---,0.00,VWS V15.00,2017-07-23 08:04:00,
2017-07-23 04:09:00,62.8,61.2,29.82,ENE,68,0.0,1.5,94,0.00,,---,0.00,VWS V15.00,2017-07-23 08:09:00,
2017-07-23 04:14:00,62.9,61.3,29.83,ENE,68,0.0,0.0,94,0.00,,---,0.00,VWS V15.00,2017-07-23 08:14:00,
2017-07-23 04:19:00,62.9,61.3,29.82,ENE,68,0.0,0.0,94,0.00,,---,0.00,VWS V15.00,2017-07-23 08:19:00,
2017-07-23 04:24:00,63.0,61.4,29.82,ENE,68,0.0,0.0,94,0.00,,---,0.00,VWS V15.00,2017-07-23 08:24:00,
2017-07-23 04:34:00,63.1,61.5,29.82,ENE,68,0.0,0.0,94,0.00,,---,0.00,VWS V15.00,2017-07-23 08:34:00,
2017-07-23 04:39:00,63.2,61.6,29.82,ENE,68,0.0,0.0,94,0.00,,---,0.00,VWS V15.00,2017-07-23 08:39:00,
2017-07-23 04:44:00,63.2,61.6,29.81,ENE,68,0.0,0.0,94,0.00,,---,0.00,VWS V15.00,2017-07-23 08:44:00,
2017-07-23 04:49:00,63.2,61.6,29.81,ENE,68,0.0,0.0,94,0.00,,---,0.00,VWS V15.00,2017-07-23 08:49:00,
2017-07-23 04:59:00,63.2,61.6,29.81,ENE,68,0.0,0.0,94,0.00,,---,0.00,VWS V15.00,2017-07-23 08:59:00,
2017-07-23 05:09:00,63.3,61.7,29.81,ENE,68,0.0,0.0,94,0.00,,---,0.00,VWS V15.00,2017-07-23 09:09:00,
2017-07-23 05:14:00,63.4,61.8,29.81,ENE,65,0.0,1.5,94,0.00,,---,0.00,VWS V15.00,2017-07-23 09:14:00,
2017-07-23 05:19:00,63.5,61.9,29.81,ENE,63,0.0,1.5,94,0.00,,---,0.00,VWS V15.00,2017-07-23 09:19:00,
2017-07-23 05:24:00,63.5,61.9,29.81,ENE,63,0.0,0.0,94,0.00,,---,0.00,VWS V15.00,2017-07-23 09:24:00,
2017-07-23 05:34:00,63.6,62.0,29.82,ENE,63,0.0,0.0,94,0.00,,---,0.00,VWS V15.00,2017-07-23 09:34:00,
2017-07-23 05:39:00,63.7,62.1,29.82,ENE,63,0.0,0.0,94,0.00,,---,0.00,VWS V15.00,2017-07-23 09:39:00,
2017-07-23 05:44:00,63.7,62.1,29.82,ENE,63,0.0,0.0,94,0.00,,---,0.00,VWS V15.00,2017-07-23 09:44:00,
2017-07-23 05:49:00,63.8,62.2,29.82,ENE,63,0.0,0.0,94,0.00,,---,0.00,VWS V15.00,2017-07-23 09:49:00,
2017-07-23 05:54:00,63.8,62.2,29.82,ENE,63,0.0,0.0,94,0.00,,---,0.00,VWS V15.00,2017-07-23 09:54:00,
2017-07-23 05:59:00,63.8,62.2,29.82,ENE,63,0.0,0.0,94,0.00,,---,0.00,VWS V15.00,2017-07-23 09:59:00,
2017-07-23 06:09:00,63.8,62.2,29.82,ENE,63,0.0,1.5,94,0.00,,---,0.00,VWS V15.00,2017-07-23 10:09:00,
2017-07-23 06:19:00,63.8,62.2,29.83,ENE,63,0.0,0.0,94,0.00,,---,0.00,VWS V15.00,2017-07-23 10:19:00,
2017-07-23 06:29:00,63.9,62.3,29.83,ENE,63,0.0,0.0,94,0.00,,---,0.00,VWS V15.00,2017-07-23 10:29:00,
2017-07-23 06:39:00,64.0,62.4,29.83,ENE,63,0.0,0.0,94,0.00,,---,0.00,VWS V15.00,2017-07-23 10:39:00,
2017-07-23 06:44:00,64.1,62.5,29.83,ENE,63,0.0,0.0,94,0.00,,---,0.00,VWS V15.00,2017-07-23 10:44:00,
2017-07-23 06:49:00,64.2,62.6,29.83,ENE,63,0.0,0.0,94,0.00,,---,0.00,VWS V15.00,2017-07-23 10:49:00,
2017-07-23 06:54:00,64.3,62.7,29.84,ENE,63,0.0,1.5,94,0.00,,---,0.00,VWS V15.00,2017-07-23 10:54:00,
2017-07-23 06:59:00,64.3,62.7,29.83,ENE,63,0.0,0.0,94,0.00,,---,0.00,VWS V15.00,2017-07-23 10:59:00,
2017-07-23 07:04:00,64.4,62.8,29.84,ENE,71,0.0,0.0,94,0.00,,---,0.00,VWS V15.00,2017-07-23 11:04:00,
2017-07-23 07:09:00,64.5,62.9,29.83,ENE,71,0.0,0.0,94,0.00,,---,0.00,VWS V15.00,2017-07-23 11:09:00,
2017-07-23 07:19:00,64.7,63.1,29.83,ENE,71,0.0,0.0,94,0.00,,---,0.00,VWS V15.00,2017-07-23 11:19:00,
2017-07-23 07:24:00,64.8,63.2,29.83,ENE,71,0.0,0.0,94,0.00,,---,0.00,VWS V15.00,2017-07-23 11:24:00,
2017-07-23 07:29:00,64.9,63.3,29.84,ENE,71,0.0,0.0,94,0.00,,---,0.00,VWS V15.00,2017-07-23 11:29:00,
2017-07-23 07:39:00,65.1,63.5,29.83,ENE,62,0.0,0.0,94,0.00,,---,0.00,VWS V15.00,2017-07-23 11:39:00,
2017-07-23 07:44:00,65.2,63.9,29.83,NE,44,0.0,3.0,96,0.00,,---,0.00,VWS V15.00,2017-07-23 11:44:00,
2017-07-23 07:49:00,65.4,63.8,29.83,NE,49,0.0,3.0,94,0.00,,---,0.00,VWS V15.00,2017-07-23 11:49:00,
2017-07-23 07:54:00,65.5,64.2,29.83,NE,39,0.0,4.5,96,0.00,,---,0.00,VWS V15.00,2017-07-23 11:54:00,
2017-07-23 07:59:00,65.5,64.2,29.83,NNE,33,3.0,6.0,96,0.00,,---,0.00,VWS V15.00,2017-07-23 11:59:00,
2017-07-23 08:04:00,65.6,64.3,29.83,SSE,152,0.0,3.0,96,0.00,,---,0.00,VWS V15.00,2017-07-23 12:04:00,
2017-07-23 08:09:00,65.7,64.4,29.83,NNE,33,0.0,4.5,96,0.00,,---,0.00,VWS V15.00,2017-07-23 12:09:00,
2017-07-23 08:14:00,65.9,64.6,29.83,NNE,33,0.0,1.5,96,0.00,,---,0.00,VWS V15.00,2017-07-23 12:14:00,
2017-07-23 08:19:00,66.0,64.7,29.83,East,98,0.0,3.0,96,0.00,,---,0.00,VWS V15.00,2017-07-23 12:19:00,
2017-07-23 08:29:00,66.3,65.3,29.83,ESE,116,0.0,3.0,97,0.00,,---,0.00,VWS V15.00,2017-07-23 12:29:00,
2017-07-23 08:34:00,66.5,65.5,29.84,SE,131,0.0,4.5,97,0.00,,---,0.00,VWS V15.00,2017-07-23 12:34:00,
2017-07-23 08:39:00,66.7,65.7,29.84,SE,131,0.0,1.5,97,0.00,,---,0.00,VWS V15.00,2017-07-23 12:39:00,
2017-07-23 08:44:00,66.8,65.8,29.84,NE,37,0.0,4.5,97,0.00,,---,0.00,VWS V15.00,2017-07-23 12:44:00,
2017-07-23 08:54:00,67.0,66.0,29.84,ESE,112,0.0,4.5,97,0.00,,---,0.00,VWS V15.00,2017-07-23 12:54:00,
2017-07-23 08:59:00,67.2,66.2,29.85,NNE,33,3.0,6.0,97,0.00,,---,0.00,VWS V15.00,2017-07-23 12:59:00,
2017-07-23 09:09:00,67.6,66.3,29.85,NE,41,0.0,4.5,96,0.00,,---,0.00,VWS V15.00,2017-07-23 13:09:00,
2017-07-23 09:14:00,67.6,66.3,29.85,ESE,108,0.0,7.5,96,0.00,,---,0.00,VWS V15.00,2017-07-23 13:14:00,
2017-07-23 09:19:00,67.6,66.3,29.84,East,96,0.0,6.0,96,0.00,,---,0.00,VWS V15.00,2017-07-23 13:19:00,
2017-07-23 09:24:00,67.9,66.6,29.84,ESE,103,3.0,4.5,96,0.00,,---,0.00,VWS V15.00,2017-07-23 13:24:00,
2017-07-23 09:29:00,68.1,66.8,29.84,ESE,110,4.5,4.5,96,0.00,,---,0.00,VWS V15.00,2017-07-23 13:29:00,
2017-07-23 09:34:00,68.2,66.6,29.84,ESE,108,0.0,9.0,94,0.00,,---,0.00,VWS V15.00,2017-07-23 13:34:00,
2017-07-23 09:39:00,68.4,66.8,29.84,East,99,4.5,6.0,94,0.00,,---,0.00,VWS V15.00,2017-07-23 13:39:00,
2017-07-23 09:44:00,68.4,66.4,29.84,ESE,103,0.0,4.5,93,0.00,,---,0.00,VWS V15.00,2017-07-23 13:44:00,